sensor_id;sensor_type;location;lat;lon;timestamp;P1;durP1;ratioP1;P2;durP2;ratioP2
8462;SDS011;4268;52.506;13.462;2023-07-31T00:02:02;3.70;;;3.03;;
8462;SDS011;4268;52.506;13.462;2023-07-31T00:04:28;3.30;;;3.10;;
8462;SDS011;4268;52.506;13.462;2023-07-31T00:06:54;3.50;;;3.20;;
8462;SDS011;4268;52.506;13.462;2023-07-31T00:09:19;3.20;;;3.00;;
8462;SDS011;4268;52.506;13.462;2023-07-31T00:11:45;3.30;;;3.10;;
8462;SDS011;4268;52.506;13.462;2023-07-31T00:14:11;3.20;;;3.00;;
8462;SDS011;4268;52.506;13.462;2023-07-31T00:16:36;3.30;;;3.10;;
8462;SDS011;4268;52.506;13.462;2023-07-31T00:19:02;3.40;;;3.20;;
8462;SDS011;4268;52.506;13.462;2023-07-31T00:21:27;3.60;;;3.30;;
8462;SDS011;4268;52.506;13.462;2023-07-31T00:23:53;3.27;;;3.07;;
8462;SDS011;4268;52.506;13.462;2023-07-31T00:26:19;3.10;;;2.90;;
8462;SDS011;4268;52.506;13.462;2023-07-31T00:28:44;5.77;;;3.40;;
8462;SDS011;4268;52.506;13.462;2023-07-31T00:31:10;3.53;;;3.23;;
8462;SDS011;4268;52.506;13.462;2023-07-31T00:33:35;3.30;;;3.00;;
8462;SDS011;4268;52.506;13.462;2023-07-31T00:36:01;3.10;;;2.80;;
8462;SDS011;4268;52.506;13.462;2023-07-31T00:38:27;3.37;;;2.97;;
8462;SDS011;4268;52.506;13.462;2023-07-31T00:40:52;3.20;;;3.00;;
8462;SDS011;4268;52.506;13.462;2023-07-31T00:43:18;2.93;;;2.73;;
8462;SDS011;4268;52.506;13.462;2023-07-31T00:45:44;3.60;;;3.03;;
8462;SDS011;4268;52.506;13.462;2023-07-31T00:48:09;3.00;;;2.80;;
8462;SDS011;4268;52.506;13.462;2023-07-31T00:50:36;3.53;;;3.10;;
8462;SDS011;4268;52.506;13.462;2023-07-31T00:53:02;3.63;;;3.33;;
8462;SDS011;4268;52.506;13.462;2023-07-31T00:55:28;3.30;;;3.10;;
8462;SDS011;4268;52.506;13.462;2023-07-31T00:57:54;4.10;;;3.70;;
8462;SDS011;4268;52.506;13.462;2023-07-31T01:00:21;4.30;;;4.00;;
8462;SDS011;4268;52.506;13.462;2023-07-31T01:02:47;4.97;;;4.00;;
8462;SDS011;4268;52.506;13.462;2023-07-31T01:05:15;3.77;;;3.47;;
8462;SDS011;4268;52.506;13.462;2023-07-31T01:07:45;3.73;;;3.43;;
8462;SDS011;4268;52.506;13.462;2023-07-31T01:12:46;3.37;;;3.17;;
8462;SDS011;4268;52.506;13.462;2023-07-31T01:15:13;3.53;;;3.13;;
8462;SDS011;4268;52.506;13.462;2023-07-31T01:17:41;3.80;;;3.50;;
8462;SDS011;4268;52.506;13.462;2023-07-31T01:20:12;3.63;;;3.20;;
8462;SDS011;4268;52.506;13.462;2023-07-31T01:23:08;3.50;;;3.20;;
8462;SDS011;4268;52.506;13.462;2023-07-31T01:26:00;3.73;;;3.43;;
8462;SDS011;4268;52.506;13.462;2023-07-31T01:28:38;3.80;;;3.60;;
8462;SDS011;4268;52.506;13.462;2023-07-31T01:31:12;5.07;;;4.67;;
8462;SDS011;4268;52.506;13.462;2023-07-31T01:33:43;4.13;;;3.83;;
8462;SDS011;4268;52.506;13.462;2023-07-31T01:36:09;3.83;;;3.53;;
8462;SDS011;4268;52.506;13.462;2023-07-31T01:38:35;3.70;;;3.40;;
8462;SDS011;4268;52.506;13.462;2023-07-31T01:41:00;3.90;;;3.60;;
8462;SDS011;4268;52.506;13.462;2023-07-31T01:43:26;3.40;;;3.20;;
8462;SDS011;4268;52.506;13.462;2023-07-31T01:45:52;3.93;;;3.50;;
8462;SDS011;4268;52.506;13.462;2023-07-31T01:48:17;4.20;;;3.90;;
8462;SDS011;4268;52.506;13.462;2023-07-31T01:50:43;3.67;;;3.40;;
8462;SDS011;4268;52.506;13.462;2023-07-31T01:53:08;3.90;;;3.60;;
8462;SDS011;4268;52.506;13.462;2023-07-31T01:55:34;4.00;;;3.70;;
8462;SDS011;4268;52.506;13.462;2023-07-31T01:58:00;4.30;;;3.90;;
8462;SDS011;4268;52.506;13.462;2023-07-31T02:00:25;4.43;;;4.23;;
8462;SDS011;4268;52.506;13.462;2023-07-31T02:02:51;5.23;;;4.87;;
8462;SDS011;4268;52.506;13.462;2023-07-31T02:05:17;5.97;;;5.67;;
8462;SDS011;4268;52.506;13.462;2023-07-31T02:07:42;5.70;;;5.30;;
8462;SDS011;4268;52.506;13.462;2023-07-31T02:10:08;6.60;;;6.20;;
8462;SDS011;4268;52.506;13.462;2023-07-31T02:12:34;6.00;;;5.70;;
8462;SDS011;4268;52.506;13.462;2023-07-31T02:14:59;5.87;;;5.40;;
8462;SDS011;4268;52.506;13.462;2023-07-31T02:17:25;5.00;;;4.50;;
8462;SDS011;4268;52.506;13.462;2023-07-31T02:19:51;4.57;;;4.27;;
8462;SDS011;4268;52.506;13.462;2023-07-31T02:22:16;5.53;;;5.03;;
8462;SDS011;4268;52.506;13.462;2023-07-31T02:24:42;4.80;;;4.47;;
8462;SDS011;4268;52.506;13.462;2023-07-31T02:27:07;5.57;;;5.13;;
8462;SDS011;4268;52.506;13.462;2023-07-31T02:29:33;5.87;;;5.47;;
8462;SDS011;4268;52.506;13.462;2023-07-31T02:31:58;5.87;;;5.47;;
8462;SDS011;4268;52.506;13.462;2023-07-31T02:34:24;6.50;;;6.10;;
8462;SDS011;4268;52.506;13.462;2023-07-31T02:36:49;6.67;;;6.10;;
8462;SDS011;4268;52.506;13.462;2023-07-31T02:39:15;6.33;;;5.90;;
8462;SDS011;4268;52.506;13.462;2023-07-31T02:41:40;5.33;;;4.93;;
8462;SDS011;4268;52.506;13.462;2023-07-31T02:44:06;4.73;;;4.43;;
8462;SDS011;4268;52.506;13.462;2023-07-31T02:46:32;4.67;;;4.33;;
8462;SDS011;4268;52.506;13.462;2023-07-31T02:48:57;5.30;;;4.90;;
8462;SDS011;4268;52.506;13.462;2023-07-31T02:51:23;4.93;;;4.60;;
8462;SDS011;4268;52.506;13.462;2023-07-31T02:53:48;5.47;;;5.07;;
8462;SDS011;4268;52.506;13.462;2023-07-31T02:56:14;5.57;;;5.17;;
8462;SDS011;4268;52.506;13.462;2023-07-31T02:58:40;5.53;;;5.13;;
8462;SDS011;4268;52.506;13.462;2023-07-31T03:01:06;5.47;;;5.17;;
8462;SDS011;4268;52.506;13.462;2023-07-31T03:03:31;5.50;;;5.10;;
8462;SDS011;4268;52.506;13.462;2023-07-31T03:05:57;4.97;;;4.67;;
8462;SDS011;4268;52.506;13.462;2023-07-31T03:08:22;5.60;;;5.20;;
8462;SDS011;4268;52.506;13.462;2023-07-31T03:10:48;5.40;;;4.90;;
8462;SDS011;4268;52.506;13.462;2023-07-31T03:13:14;7.57;;;7.07;;
8462;SDS011;4268;52.506;13.462;2023-07-31T03:15:41;6.30;;;5.80;;
8462;SDS011;4268;52.506;13.462;2023-07-31T03:18:07;6.13;;;5.70;;
8462;SDS011;4268;52.506;13.462;2023-07-31T03:20:33;6.27;;;5.77;;
8462;SDS011;4268;52.506;13.462;2023-07-31T03:22:58;7.40;;;6.80;;
8462;SDS011;4268;52.506;13.462;2023-07-31T03:25:24;7.07;;;6.57;;
8462;SDS011;4268;52.506;13.462;2023-07-31T03:27:50;7.70;;;7.10;;
8462;SDS011;4268;52.506;13.462;2023-07-31T03:30:15;7.63;;;7.13;;
8462;SDS011;4268;52.506;13.462;2023-07-31T03:32:41;8.33;;;7.73;;
8462;SDS011;4268;52.506;13.462;2023-07-31T03:35:07;8.97;;;8.37;;
8462;SDS011;4268;52.506;13.462;2023-07-31T03:37:32;8.97;;;8.37;;
8462;SDS011;4268;52.506;13.462;2023-07-31T03:39:58;9.10;;;8.50;;
8462;SDS011;4268;52.506;13.462;2023-07-31T03:42:24;8.90;;;8.40;;
8462;SDS011;4268;52.506;13.462;2023-07-31T03:44:49;9.70;;;8.90;;
8462;SDS011;4268;52.506;13.462;2023-07-31T03:47:15;10.00;;;9.20;;
8462;SDS011;4268;52.506;13.462;2023-07-31T03:49:40;9.83;;;9.13;;
8462;SDS011;4268;52.506;13.462;2023-07-31T03:52:06;9.47;;;8.90;;
8462;SDS011;4268;52.506;13.462;2023-07-31T03:54:32;9.67;;;9.13;;
8462;SDS011;4268;52.506;13.462;2023-07-31T03:56:57;9.20;;;8.60;;
8462;SDS011;4268;52.506;13.462;2023-07-31T03:59:23;7.60;;;7.10;;
8462;SDS011;4268;52.506;13.462;2023-07-31T04:01:49;7.80;;;7.10;;
8462;SDS011;4268;52.506;13.462;2023-07-31T04:04:14;7.60;;;7.10;;
8462;SDS011;4268;52.506;13.462;2023-07-31T04:06:40;7.97;;;7.47;;
8462;SDS011;4268;52.506;13.462;2023-07-31T04:09:05;10.13;;;9.37;;
8462;SDS011;4268;52.506;13.462;2023-07-31T04:11:31;10.23;;;9.60;;
8462;SDS011;4268;52.506;13.462;2023-07-31T04:13:57;8.47;;;7.97;;
8462;SDS011;4268;52.506;13.462;2023-07-31T04:16:23;9.33;;;8.70;;
8462;SDS011;4268;52.506;13.462;2023-07-31T04:18:48;8.50;;;7.80;;
8462;SDS011;4268;52.506;13.462;2023-07-31T04:21:14;8.03;;;7.53;;
8462;SDS011;4268;52.506;13.462;2023-07-31T04:23:39;7.90;;;7.50;;
8462;SDS011;4268;52.506;13.462;2023-07-31T04:26:05;7.73;;;7.23;;
8462;SDS011;4268;52.506;13.462;2023-07-31T04:28:31;8.50;;;7.80;;
8462;SDS011;4268;52.506;13.462;2023-07-31T04:30:56;16.03;;;15.17;;
8462;SDS011;4268;52.506;13.462;2023-07-31T04:33:22;8.30;;;7.70;;
8462;SDS011;4268;52.506;13.462;2023-07-31T04:35:51;7.83;;;7.23;;
8462;SDS011;4268;52.506;13.462;2023-07-31T04:38:18;7.57;;;6.97;;
8462;SDS011;4268;52.506;13.462;2023-07-31T04:40:44;7.40;;;6.77;;
8462;SDS011;4268;52.506;13.462;2023-07-31T04:43:10;7.67;;;6.97;;
8462;SDS011;4268;52.506;13.462;2023-07-31T04:45:35;7.63;;;7.07;;
8462;SDS011;4268;52.506;13.462;2023-07-31T04:48:01;7.20;;;6.70;;
8462;SDS011;4268;52.506;13.462;2023-07-31T04:50:27;8.33;;;7.70;;
8462;SDS011;4268;52.506;13.462;2023-07-31T04:52:52;8.27;;;7.67;;
8462;SDS011;4268;52.506;13.462;2023-07-31T04:55:18;8.03;;;7.33;;
8462;SDS011;4268;52.506;13.462;2023-07-31T04:57:43;7.53;;;6.93;;
8462;SDS011;4268;52.506;13.462;2023-07-31T05:00:09;8.00;;;7.40;;
8462;SDS011;4268;52.506;13.462;2023-07-31T05:02:35;7.50;;;6.80;;
8462;SDS011;4268;52.506;13.462;2023-07-31T05:05:01;6.47;;;5.87;;
8462;SDS011;4268;52.506;13.462;2023-07-31T05:07:26;7.43;;;6.93;;
8462;SDS011;4268;52.506;13.462;2023-07-31T05:09:52;8.30;;;7.63;;
8462;SDS011;4268;52.506;13.462;2023-07-31T05:12:17;10.77;;;8.70;;
8462;SDS011;4268;52.506;13.462;2023-07-31T05:14:43;7.90;;;6.90;;
8462;SDS011;4268;52.506;13.462;2023-07-31T05:17:09;7.43;;;6.87;;
8462;SDS011;4268;52.506;13.462;2023-07-31T05:19:34;6.50;;;5.90;;
8462;SDS011;4268;52.506;13.462;2023-07-31T05:22:00;5.53;;;5.13;;
8462;SDS011;4268;52.506;13.462;2023-07-31T05:24:25;6.17;;;5.53;;
8462;SDS011;4268;52.506;13.462;2023-07-31T05:26:51;5.50;;;5.10;;
8462;SDS011;4268;52.506;13.462;2023-07-31T05:29:17;6.70;;;6.13;;
8462;SDS011;4268;52.506;13.462;2023-07-31T05:31:42;5.93;;;5.50;;
8462;SDS011;4268;52.506;13.462;2023-07-31T05:34:08;6.40;;;5.80;;
8462;SDS011;4268;52.506;13.462;2023-07-31T05:36:33;4.50;;;4.20;;
8462;SDS011;4268;52.506;13.462;2023-07-31T05:39:00;4.90;;;4.40;;
8462;SDS011;4268;52.506;13.462;2023-07-31T05:41:31;5.17;;;4.77;;
8462;SDS011;4268;52.506;13.462;2023-07-31T05:43:56;5.47;;;5.03;;
8462;SDS011;4268;52.506;13.462;2023-07-31T05:46:22;5.50;;;5.10;;
8462;SDS011;4268;52.506;13.462;2023-07-31T05:48:47;6.03;;;5.53;;
8462;SDS011;4268;52.506;13.462;2023-07-31T05:51:12;5.93;;;5.33;;
8462;SDS011;4268;52.506;13.462;2023-07-31T05:53:38;5.00;;;4.60;;
8462;SDS011;4268;52.506;13.462;2023-07-31T05:56:05;4.93;;;4.60;;
8462;SDS011;4268;52.506;13.462;2023-07-31T05:58:31;5.43;;;5.03;;
8462;SDS011;4268;52.506;13.462;2023-07-31T06:00:56;5.23;;;4.73;;
8462;SDS011;4268;52.506;13.462;2023-07-31T06:03:22;5.60;;;5.10;;
8462;SDS011;4268;52.506;13.462;2023-07-31T06:05:47;4.87;;;4.53;;
8462;SDS011;4268;52.506;13.462;2023-07-31T06:08:13;5.00;;;4.60;;
8462;SDS011;4268;52.506;13.462;2023-07-31T06:10:38;4.60;;;4.17;;
8462;SDS011;4268;52.506;13.462;2023-07-31T06:13:04;4.87;;;4.33;;
8462;SDS011;4268;52.506;13.462;2023-07-31T06:15:29;5.50;;;5.10;;
8462;SDS011;4268;52.506;13.462;2023-07-31T06:17:55;6.27;;;5.87;;
8462;SDS011;4268;52.506;13.462;2023-07-31T06:20:20;8.17;;;6.63;;
8462;SDS011;4268;52.506;13.462;2023-07-31T06:22:46;6.73;;;6.23;;
8462;SDS011;4268;52.506;13.462;2023-07-31T06:25:11;7.10;;;6.50;;
8462;SDS011;4268;52.506;13.462;2023-07-31T06:27:37;7.47;;;6.97;;
8462;SDS011;4268;52.506;13.462;2023-07-31T06:30:02;7.63;;;7.13;;
8462;SDS011;4268;52.506;13.462;2023-07-31T06:32:28;7.00;;;6.60;;
8462;SDS011;4268;52.506;13.462;2023-07-31T06:34:55;6.90;;;6.40;;
8462;SDS011;4268;52.506;13.462;2023-07-31T06:37:20;5.87;;;5.43;;
8462;SDS011;4268;52.506;13.462;2023-07-31T06:39:45;5.13;;;4.73;;
8462;SDS011;4268;52.506;13.462;2023-07-31T06:42:11;5.17;;;4.70;;
8462;SDS011;4268;52.506;13.462;2023-07-31T06:44:36;4.53;;;4.13;;
8462;SDS011;4268;52.506;13.462;2023-07-31T06:47:02;4.17;;;3.80;;
8462;SDS011;4268;52.506;13.462;2023-07-31T06:49:28;4.20;;;3.90;;
8462;SDS011;4268;52.506;13.462;2023-07-31T06:51:53;4.33;;;4.00;;
8462;SDS011;4268;52.506;13.462;2023-07-31T06:54:18;4.90;;;4.37;;
8462;SDS011;4268;52.506;13.462;2023-07-31T06:56:44;4.93;;;4.63;;
8462;SDS011;4268;52.506;13.462;2023-07-31T06:59:09;4.73;;;4.33;;
8462;SDS011;4268;52.506;13.462;2023-07-31T07:01:35;4.70;;;4.30;;
8462;SDS011;4268;52.506;13.462;2023-07-31T07:04:01;4.30;;;4.00;;
8462;SDS011;4268;52.506;13.462;2023-07-31T07:06:26;3.70;;;3.00;;
8462;SDS011;4268;52.506;13.462;2023-07-31T07:08:52;4.27;;;3.50;;
8462;SDS011;4268;52.506;13.462;2023-07-31T07:11:17;4.20;;;3.80;;
8462;SDS011;4268;52.506;13.462;2023-07-31T07:13:43;4.10;;;3.77;;
8462;SDS011;4268;52.506;13.462;2023-07-31T07:16:08;3.43;;;3.13;;
8462;SDS011;4268;52.506;13.462;2023-07-31T07:18:35;3.47;;;3.17;;
8462;SDS011;4268;52.506;13.462;2023-07-31T07:21:00;3.47;;;3.20;;
8462;SDS011;4268;52.506;13.462;2023-07-31T07:23:27;3.87;;;3.43;;
8462;SDS011;4268;52.506;13.462;2023-07-31T07:25:52;5.20;;;4.00;;
8462;SDS011;4268;52.506;13.462;2023-07-31T07:28:18;3.57;;;3.27;;
8462;SDS011;4268;52.506;13.462;2023-07-31T07:30:43;3.60;;;3.40;;
8462;SDS011;4268;52.506;13.462;2023-07-31T07:33:09;3.37;;;3.17;;
8462;SDS011;4268;52.506;13.462;2023-07-31T07:35:35;3.77;;;3.47;;
8462;SDS011;4268;52.506;13.462;2023-07-31T07:38:04;3.60;;;3.30;;
8462;SDS011;4268;52.506;13.462;2023-07-31T07:40:29;3.90;;;3.50;;
8462;SDS011;4268;52.506;13.462;2023-07-31T07:42:55;3.63;;;3.30;;
8462;SDS011;4268;52.506;13.462;2023-07-31T07:45:20;4.00;;;3.70;;
8462;SDS011;4268;52.506;13.462;2023-07-31T07:47:46;3.90;;;3.60;;
8462;SDS011;4268;52.506;13.462;2023-07-31T07:50:11;4.50;;;3.70;;
8462;SDS011;4268;52.506;13.462;2023-07-31T07:52:37;3.70;;;3.40;;
8462;SDS011;4268;52.506;13.462;2023-07-31T07:55:03;3.80;;;3.50;;
8462;SDS011;4268;52.506;13.462;2023-07-31T07:57:28;3.93;;;3.63;;
8462;SDS011;4268;52.506;13.462;2023-07-31T07:59:54;3.50;;;3.30;;
8462;SDS011;4268;52.506;13.462;2023-07-31T08:02:20;3.30;;;3.10;;
8462;SDS011;4268;52.506;13.462;2023-07-31T08:04:45;3.83;;;3.53;;
8462;SDS011;4268;52.506;13.462;2023-07-31T08:07:11;3.33;;;3.13;;
8462;SDS011;4268;52.506;13.462;2023-07-31T08:09:37;3.57;;;3.37;;
8462;SDS011;4268;52.506;13.462;2023-07-31T08:12:03;3.00;;;2.80;;
8462;SDS011;4268;52.506;13.462;2023-07-31T08:14:29;3.07;;;2.77;;
8462;SDS011;4268;52.506;13.462;2023-07-31T08:16:55;3.30;;;3.07;;
8462;SDS011;4268;52.506;13.462;2023-07-31T08:19:20;3.00;;;2.80;;
8462;SDS011;4268;52.506;13.462;2023-07-31T08:21:46;4.60;;;3.30;;
8462;SDS011;4268;52.506;13.462;2023-07-31T08:24:11;3.17;;;2.97;;
8462;SDS011;4268;52.506;13.462;2023-07-31T08:26:37;2.77;;;2.67;;
8462;SDS011;4268;52.506;13.462;2023-07-31T08:29:02;3.03;;;2.87;;
8462;SDS011;4268;52.506;13.462;2023-07-31T08:31:29;3.10;;;2.90;;
8462;SDS011;4268;52.506;13.462;2023-07-31T08:33:55;2.90;;;2.70;;
8462;SDS011;4268;52.506;13.462;2023-07-31T08:36:21;2.80;;;2.70;;
8462;SDS011;4268;52.506;13.462;2023-07-31T08:38:46;3.10;;;2.90;;
8462;SDS011;4268;52.506;13.462;2023-07-31T08:41:12;4.13;;;3.93;;
8462;SDS011;4268;52.506;13.462;2023-07-31T08:43:38;3.10;;;2.90;;
8462;SDS011;4268;52.506;13.462;2023-07-31T08:46:04;3.33;;;3.13;;
8462;SDS011;4268;52.506;13.462;2023-07-31T08:48:30;3.87;;;3.40;;
8462;SDS011;4268;52.506;13.462;2023-07-31T08:50:56;3.57;;;3.30;;
8462;SDS011;4268;52.506;13.462;2023-07-31T08:53:22;3.40;;;3.20;;
8462;SDS011;4268;52.506;13.462;2023-07-31T08:55:48;3.37;;;3.13;;
8462;SDS011;4268;52.506;13.462;2023-07-31T08:58:14;3.40;;;3.10;;
8462;SDS011;4268;52.506;13.462;2023-07-31T09:00:40;3.20;;;3.00;;
8462;SDS011;4268;52.506;13.462;2023-07-31T09:03:09;5.10;;;3.33;;
8462;SDS011;4268;52.506;13.462;2023-07-31T09:05:38;3.90;;;3.60;;
8462;SDS011;4268;52.506;13.462;2023-07-31T09:08:09;3.30;;;3.10;;
8462;SDS011;4268;52.506;13.462;2023-07-31T09:10:40;3.37;;;3.10;;
8462;SDS011;4268;52.506;13.462;2023-07-31T09:13:10;3.30;;;3.00;;
8462;SDS011;4268;52.506;13.462;2023-07-31T09:15:36;3.27;;;3.07;;
8462;SDS011;4268;52.506;13.462;2023-07-31T09:18:03;3.57;;;3.37;;
8462;SDS011;4268;52.506;13.462;2023-07-31T09:20:30;3.67;;;3.37;;
8462;SDS011;4268;52.506;13.462;2023-07-31T09:22:56;3.50;;;3.20;;
8462;SDS011;4268;52.506;13.462;2023-07-31T09:25:30;3.03;;;2.83;;
8462;SDS011;4268;52.506;13.462;2023-07-31T09:30:25;3.00;;;2.90;;
8462;SDS011;4268;52.506;13.462;2023-07-31T09:32:52;2.90;;;2.80;;
8462;SDS011;4268;52.506;13.462;2023-07-31T09:38:00;2.73;;;2.63;;
8462;SDS011;4268;52.506;13.462;2023-07-31T09:40:44;3.87;;;2.83;;
8462;SDS011;4268;52.506;13.462;2023-07-31T09:43:12;3.47;;;3.17;;
8462;SDS011;4268;52.506;13.462;2023-07-31T09:45:40;3.30;;;3.20;;
8462;SDS011;4268;52.506;13.462;2023-07-31T09:48:10;3.23;;;3.10;;
8462;SDS011;4268;52.506;13.462;2023-07-31T09:50:44;3.10;;;2.90;;
8462;SDS011;4268;52.506;13.462;2023-07-31T09:53:11;2.90;;;2.70;;
8462;SDS011;4268;52.506;13.462;2023-07-31T09:55:37;2.67;;;2.57;;
8462;SDS011;4268;52.506;13.462;2023-07-31T09:58:04;2.73;;;2.63;;
8462;SDS011;4268;52.506;13.462;2023-07-31T10:00:31;3.10;;;2.90;;
8462;SDS011;4268;52.506;13.462;2023-07-31T10:03:00;3.07;;;2.90;;
8462;SDS011;4268;52.506;13.462;2023-07-31T10:10:37;3.13;;;3.03;;
8462;SDS011;4268;52.506;13.462;2023-07-31T10:13:05;3.37;;;3.17;;
8462;SDS011;4268;52.506;13.462;2023-07-31T10:15:31;3.40;;;3.20;;
8462;SDS011;4268;52.506;13.462;2023-07-31T10:17:58;3.50;;;3.30;;
8462;SDS011;4268;52.506;13.462;2023-07-31T10:20:24;3.30;;;3.10;;
8462;SDS011;4268;52.506;13.462;2023-07-31T10:22:52;3.83;;;3.43;;
8462;SDS011;4268;52.506;13.462;2023-07-31T10:25:20;3.43;;;3.23;;
8462;SDS011;4268;52.506;13.462;2023-07-31T10:27:47;4.33;;;3.90;;
8462;SDS011;4268;52.506;13.462;2023-07-31T10:30:15;3.93;;;3.57;;
8462;SDS011;4268;52.506;13.462;2023-07-31T10:32:43;4.20;;;3.90;;
8462;SDS011;4268;52.506;13.462;2023-07-31T10:35:10;4.00;;;3.70;;
8462;SDS011;4268;52.506;13.462;2023-07-31T10:37:37;4.40;;;4.10;;
8462;SDS011;4268;52.506;13.462;2023-07-31T10:40:11;4.53;;;4.13;;
8462;SDS011;4268;52.506;13.462;2023-07-31T10:45:23;4.53;;;4.13;;
8462;SDS011;4268;52.506;13.462;2023-07-31T10:47:51;3.83;;;3.53;;
8462;SDS011;4268;52.506;13.462;2023-07-31T10:50:25;4.23;;;3.83;;
8462;SDS011;4268;52.506;13.462;2023-07-31T10:52:52;4.30;;;3.90;;
8462;SDS011;4268;52.506;13.462;2023-07-31T10:55:24;4.50;;;4.10;;
8462;SDS011;4268;52.506;13.462;2023-07-31T10:57:55;5.97;;;5.57;;
8462;SDS011;4268;52.506;13.462;2023-07-31T11:02:56;6.63;;;5.83;;
8462;SDS011;4268;52.506;13.462;2023-07-31T11:05:44;5.07;;;4.67;;
8462;SDS011;4268;52.506;13.462;2023-07-31T11:08:15;4.67;;;4.17;;
8462;SDS011;4268;52.506;13.462;2023-07-31T11:11:04;4.00;;;3.70;;
8462;SDS011;4268;52.506;13.462;2023-07-31T11:15:57;4.50;;;4.00;;
8462;SDS011;4268;52.506;13.462;2023-07-31T11:18:23;4.40;;;4.00;;
8462;SDS011;4268;52.506;13.462;2023-07-31T11:20:49;4.83;;;4.33;;
8462;SDS011;4268;52.506;13.462;2023-07-31T11:23:15;4.53;;;4.13;;
8462;SDS011;4268;52.506;13.462;2023-07-31T11:25:42;4.60;;;4.20;;
8462;SDS011;4268;52.506;13.462;2023-07-31T11:28:14;4.40;;;4.00;;
8462;SDS011;4268;52.506;13.462;2023-07-31T11:30:41;3.83;;;3.53;;
8462;SDS011;4268;52.506;13.462;2023-07-31T11:33:08;3.70;;;3.50;;
8462;SDS011;4268;52.506;13.462;2023-07-31T11:35:36;3.43;;;3.20;;
8462;SDS011;4268;52.506;13.462;2023-07-31T11:38:10;4.10;;;3.80;;
8462;SDS011;4268;52.506;13.462;2023-07-31T11:40:57;4.10;;;3.80;;
8462;SDS011;4268;52.506;13.462;2023-07-31T11:43:24;4.10;;;3.73;;
8462;SDS011;4268;52.506;13.462;2023-07-31T11:45:52;4.63;;;4.27;;
8462;SDS011;4268;52.506;13.462;2023-07-31T11:48:25;5.10;;;4.70;;
8462;SDS011;4268;52.506;13.462;2023-07-31T11:50:53;5.53;;;5.20;;
8462;SDS011;4268;52.506;13.462;2023-07-31T11:53:27;4.77;;;4.47;;
8462;SDS011;4268;52.506;13.462;2023-07-31T11:56:00;3.97;;;3.57;;
8462;SDS011;4268;52.506;13.462;2023-07-31T11:58:29;3.60;;;3.30;;
8462;SDS011;4268;52.506;13.462;2023-07-31T12:00:59;3.57;;;3.37;;
8462;SDS011;4268;52.506;13.462;2023-07-31T12:03:25;3.43;;;3.13;;
8462;SDS011;4268;52.506;13.462;2023-07-31T12:05:52;3.70;;;3.40;;
8462;SDS011;4268;52.506;13.462;2023-07-31T12:08:20;3.57;;;3.27;;
8462;SDS011;4268;52.506;13.462;2023-07-31T12:10:50;3.33;;;3.07;;
8462;SDS011;4268;52.506;13.462;2023-07-31T12:13:23;3.40;;;3.20;;
8462;SDS011;4268;52.506;13.462;2023-07-31T12:15:55;3.93;;;3.50;;
8462;SDS011;4268;52.506;13.462;2023-07-31T12:18:22;4.50;;;3.47;;
8462;SDS011;4268;52.506;13.462;2023-07-31T12:20:53;4.23;;;3.40;;
8462;SDS011;4268;52.506;13.462;2023-07-31T12:23:21;4.27;;;3.70;;
8462;SDS011;4268;52.506;13.462;2023-07-31T12:28:43;3.80;;;3.50;;
8462;SDS011;4268;52.506;13.462;2023-07-31T12:31:14;3.70;;;3.40;;
8462;SDS011;4268;52.506;13.462;2023-07-31T12:33:44;8.37;;;3.40;;
8462;SDS011;4268;52.506;13.462;2023-07-31T12:36:11;4.23;;;3.60;;
8462;SDS011;4268;52.506;13.462;2023-07-31T12:38:38;3.40;;;3.20;;
8462;SDS011;4268;52.506;13.462;2023-07-31T12:41:04;3.80;;;3.20;;
8462;SDS011;4268;52.506;13.462;2023-07-31T12:43:31;3.77;;;3.20;;
8462;SDS011;4268;52.506;13.462;2023-07-31T12:45:57;3.10;;;2.90;;
8462;SDS011;4268;52.506;13.462;2023-07-31T12:48:24;3.93;;;3.63;;
8462;SDS011;4268;52.506;13.462;2023-07-31T12:50:49;4.00;;;3.60;;
8462;SDS011;4268;52.506;13.462;2023-07-31T12:53:15;3.37;;;3.07;;
8462;SDS011;4268;52.506;13.462;2023-07-31T12:55:41;4.47;;;3.43;;
8462;SDS011;4268;52.506;13.462;2023-07-31T12:58:06;3.20;;;3.00;;
8462;SDS011;4268;52.506;13.462;2023-07-31T13:00:32;3.27;;;2.93;;
8462;SDS011;4268;52.506;13.462;2023-07-31T13:02:57;3.17;;;2.97;;
8462;SDS011;4268;52.506;13.462;2023-07-31T13:05:24;3.10;;;2.90;;
8462;SDS011;4268;52.506;13.462;2023-07-31T13:07:49;3.23;;;2.90;;
8462;SDS011;4268;52.506;13.462;2023-07-31T13:10:15;3.40;;;3.10;;
8462;SDS011;4268;52.506;13.462;2023-07-31T13:12:40;3.60;;;2.77;;
8462;SDS011;4268;52.506;13.462;2023-07-31T13:15:06;3.80;;;3.50;;
8462;SDS011;4268;52.506;13.462;2023-07-31T13:17:32;3.00;;;2.80;;
8462;SDS011;4268;52.506;13.462;2023-07-31T13:19:58;3.00;;;2.80;;
8462;SDS011;4268;52.506;13.462;2023-07-31T13:22:24;2.80;;;2.60;;
8462;SDS011;4268;52.506;13.462;2023-07-31T13:24:51;3.10;;;2.90;;
8462;SDS011;4268;52.506;13.462;2023-07-31T13:27:17;2.97;;;2.77;;
8462;SDS011;4268;52.506;13.462;2023-07-31T13:29:44;3.10;;;2.90;;
8462;SDS011;4268;52.506;13.462;2023-07-31T13:32:10;3.30;;;3.10;;
8462;SDS011;4268;52.506;13.462;2023-07-31T13:34:36;3.30;;;3.10;;
8462;SDS011;4268;52.506;13.462;2023-07-31T13:37:02;3.43;;;3.13;;
8462;SDS011;4268;52.506;13.462;2023-07-31T13:39:27;3.27;;;3.07;;
8462;SDS011;4268;52.506;13.462;2023-07-31T13:41:53;3.30;;;3.10;;
8462;SDS011;4268;52.506;13.462;2023-07-31T13:44:19;3.40;;;3.10;;
8462;SDS011;4268;52.506;13.462;2023-07-31T13:46:44;3.60;;;3.40;;
8462;SDS011;4268;52.506;13.462;2023-07-31T13:49:10;3.73;;;3.47;;
8462;SDS011;4268;52.506;13.462;2023-07-31T13:51:35;3.50;;;3.20;;
8462;SDS011;4268;52.506;13.462;2023-07-31T13:54:02;3.50;;;3.10;;
8462;SDS011;4268;52.506;13.462;2023-07-31T13:56:28;3.53;;;3.23;;
8462;SDS011;4268;52.506;13.462;2023-07-31T13:58:54;3.93;;;3.27;;
8462;SDS011;4268;52.506;13.462;2023-07-31T14:01:19;3.50;;;3.20;;
8462;SDS011;4268;52.506;13.462;2023-07-31T14:03:44;3.73;;;3.43;;
8462;SDS011;4268;52.506;13.462;2023-07-31T14:06:10;3.43;;;3.20;;
8462;SDS011;4268;52.506;13.462;2023-07-31T14:08:36;4.17;;;3.10;;
8462;SDS011;4268;52.506;13.462;2023-07-31T14:11:01;3.93;;;3.50;;
8462;SDS011;4268;52.506;13.462;2023-07-31T14:13:27;3.40;;;3.10;;
8462;SDS011;4268;52.506;13.462;2023-07-31T14:15:52;4.57;;;3.60;;
8462;SDS011;4268;52.506;13.462;2023-07-31T14:18:18;3.20;;;3.00;;
8462;SDS011;4268;52.506;13.462;2023-07-31T14:20:44;3.37;;;3.10;;
8462;SDS011;4268;52.506;13.462;2023-07-31T14:23:09;3.20;;;3.00;;
8462;SDS011;4268;52.506;13.462;2023-07-31T14:25:35;3.57;;;3.20;;
8462;SDS011;4268;52.506;13.462;2023-07-31T14:28:00;3.60;;;3.30;;
8462;SDS011;4268;52.506;13.462;2023-07-31T14:30:26;3.67;;;3.40;;
8462;SDS011;4268;52.506;13.462;2023-07-31T14:32:52;3.63;;;3.33;;
8462;SDS011;4268;52.506;13.462;2023-07-31T14:35:17;3.43;;;3.13;;
8462;SDS011;4268;52.506;13.462;2023-07-31T14:37:44;3.30;;;3.10;;
8462;SDS011;4268;52.506;13.462;2023-07-31T14:40:10;3.50;;;3.20;;
8462;SDS011;4268;52.506;13.462;2023-07-31T14:42:37;4.80;;;3.23;;
8462;SDS011;4268;52.506;13.462;2023-07-31T14:45:04;3.30;;;3.10;;
8462;SDS011;4268;52.506;13.462;2023-07-31T14:47:31;3.13;;;2.93;;
8462;SDS011;4268;52.506;13.462;2023-07-31T14:49:57;3.30;;;3.03;;
8462;SDS011;4268;52.506;13.462;2023-07-31T14:52:23;3.27;;;3.07;;
8462;SDS011;4268;52.506;13.462;2023-07-31T14:54:49;3.37;;;3.07;;
8462;SDS011;4268;52.506;13.462;2023-07-31T14:57:15;3.30;;;3.10;;
8462;SDS011;4268;52.506;13.462;2023-07-31T14:59:40;4.17;;;3.20;;
8462;SDS011;4268;52.506;13.462;2023-07-31T15:02:06;4.13;;;3.27;;
8462;SDS011;4268;52.506;13.462;2023-07-31T15:04:34;4.33;;;3.10;;
8462;SDS011;4268;52.506;13.462;2023-07-31T15:06:59;3.43;;;3.13;;
8462;SDS011;4268;52.506;13.462;2023-07-31T15:09:25;3.57;;;3.27;;
8462;SDS011;4268;52.506;13.462;2023-07-31T15:11:50;3.43;;;3.13;;
8462;SDS011;4268;52.506;13.462;2023-07-31T15:14:16;3.60;;;3.30;;
8462;SDS011;4268;52.506;13.462;2023-07-31T15:16:42;3.47;;;3.10;;
8462;SDS011;4268;52.506;13.462;2023-07-31T15:19:07;3.93;;;3.50;;
8462;SDS011;4268;52.506;13.462;2023-07-31T15:21:35;3.60;;;3.30;;